sensor_id;sensor_type;location;lat;lon;timestamp;temperature;humidity
14053;DHT22;7101;51.600;7.310;2023-05-07T00:00:01;14.20;99.90
14053;DHT22;7101;51.600;7.310;2023-05-07T00:02:28;14.30;99.90
14053;DHT22;7101;51.600;7.310;2023-05-07T00:04:56;14.20;99.90
14053;DHT22;7101;51.600;7.310;2023-05-07T00:07:23;14.10;99.90
14053;DHT22;7101;51.600;7.310;2023-05-07T00:09:50;14.10;99.90
14053;DHT22;7101;51.600;7.310;2023-05-07T00:12:17;14.00;99.90
14053;DHT22;7101;51.600;7.310;2023-05-07T00:14:43;14.00;99.90
14053;DHT22;7101;51.600;7.310;2023-05-07T00:17:11;14.00;99.90
14053;DHT22;7101;51.600;7.310;2023-05-07T00:19:38;14.00;99.90
14053;DHT22;7101;51.600;7.310;2023-05-07T00:22:07;14.00;99.90
14053;DHT22;7101;51.600;7.310;2023-05-07T00:24:34;14.00;99.90
14053;DHT22;7101;51.600;7.310;2023-05-07T00:27:01;14.00;99.90
14053;DHT22;7101;51.600;7.310;2023-05-07T00:29:28;14.00;99.90
14053;DHT22;7101;51.600;7.310;2023-05-07T00:31:55;14.00;99.90
14053;DHT22;7101;51.600;7.310;2023-05-07T00:34:21;14.00;99.90
14053;DHT22;7101;51.600;7.310;2023-05-07T00:36:49;13.90;99.90
14053;DHT22;7101;51.600;7.310;2023-05-07T00:39:17;14.00;99.90
14053;DHT22;7101;51.600;7.310;2023-05-07T00:41:44;14.00;99.90
14053;DHT22;7101;51.600;7.310;2023-05-07T00:44:11;13.90;99.90
14053;DHT22;7101;51.600;7.310;2023-05-07T00:46:38;13.80;99.90
14053;DHT22;7101;51.600;7.310;2023-05-07T00:49:05;13.90;99.90
14053;DHT22;7101;51.600;7.310;2023-05-07T00:51:32;13.90;99.90
14053;DHT22;7101;51.600;7.310;2023-05-07T00:54:01;13.90;99.90
14053;DHT22;7101;51.600;7.310;2023-05-07T00:56:30;13.80;99.90
14053;DHT22;7101;51.600;7.310;2023-05-07T00:58:57;14.00;99.90
14053;DHT22;7101;51.600;7.310;2023-05-07T01:01:24;13.90;99.90
14053;DHT22;7101;51.600;7.310;2023-05-07T01:03:53;13.80;99.90
14053;DHT22;7101;51.600;7.310;2023-05-07T01:06:21;13.90;99.90
14053;DHT22;7101;51.600;7.310;2023-05-07T01:08:49;14.00;99.90
14053;DHT22;7101;51.600;7.310;2023-05-07T01:11:18;13.90;99.90
14053;DHT22;7101;51.600;7.310;2023-05-07T01:13:49;13.90;99.90
14053;DHT22;7101;51.600;7.310;2023-05-07T01:16:17;13.80;99.90
14053;DHT22;7101;51.600;7.310;2023-05-07T01:18:44;13.70;99.90
14053;DHT22;7101;51.600;7.310;2023-05-07T01:21:15;13.60;99.90
14053;DHT22;7101;51.600;7.310;2023-05-07T01:23:46;13.70;99.90
14053;DHT22;7101;51.600;7.310;2023-05-07T01:26:13;13.60;99.90
14053;DHT22;7101;51.600;7.310;2023-05-07T01:28:40;13.70;99.90
14053;DHT22;7101;51.600;7.310;2023-05-07T01:31:08;13.60;99.90
14053;DHT22;7101;51.600;7.310;2023-05-07T01:33:36;13.70;99.90
14053;DHT22;7101;51.600;7.310;2023-05-07T01:36:06;13.80;99.90
14053;DHT22;7101;51.600;7.310;2023-05-07T01:38:34;13.80;99.90
14053;DHT22;7101;51.600;7.310;2023-05-07T01:41:03;13.70;99.90
14053;DHT22;7101;51.600;7.310;2023-05-07T01:43:30;13.70;99.90
14053;DHT22;7101;51.600;7.310;2023-05-07T01:45:58;13.70;99.90
14053;DHT22;7101;51.600;7.310;2023-05-07T01:48:25;13.70;99.90
14053;DHT22;7101;51.600;7.310;2023-05-07T01:50:53;13.80;99.90
14053;DHT22;7101;51.600;7.310;2023-05-07T01:53:20;13.80;99.90
14053;DHT22;7101;51.600;7.310;2023-05-07T01:55:47;13.90;99.90
14053;DHT22;7101;51.600;7.310;2023-05-07T01:58:15;13.90;99.90
14053;DHT22;7101;51.600;7.310;2023-05-07T02:00:42;13.90;99.90
14053;DHT22;7101;51.600;7.310;2023-05-07T02:03:08;13.80;99.90
14053;DHT22;7101;51.600;7.310;2023-05-07T02:05:35;13.80;99.90
14053;DHT22;7101;51.600;7.310;2023-05-07T02:08:02;13.80;99.90
14053;DHT22;7101;51.600;7.310;2023-05-07T02:10:29;13.80;99.90
14053;DHT22;7101;51.600;7.310;2023-05-07T02:12:56;13.80;99.90
14053;DHT22;7101;51.600;7.310;2023-05-07T02:15:25;13.80;99.90
14053;DHT22;7101;51.600;7.310;2023-05-07T02:17:59;13.80;99.90
14053;DHT22;7101;51.600;7.310;2023-05-07T02:20:27;13.80;99.90
14053;DHT22;7101;51.600;7.310;2023-05-07T02:22:54;13.70;99.90
14053;DHT22;7101;51.600;7.310;2023-05-07T02:25:21;13.70;99.90
14053;DHT22;7101;51.600;7.310;2023-05-07T02:27:49;13.60;99.90
14053;DHT22;7101;51.600;7.310;2023-05-07T02:30:16;13.60;99.90
14053;DHT22;7101;51.600;7.310;2023-05-07T02:32:44;13.60;99.90
14053;DHT22;7101;51.600;7.310;2023-05-07T02:35:11;13.70;99.90
14053;DHT22;7101;51.600;7.310;2023-05-07T02:37:38;13.60;99.90
14053;DHT22;7101;51.600;7.310;2023-05-07T02:40:06;13.60;99.90
14053;DHT22;7101;51.600;7.310;2023-05-07T02:42:34;13.60;99.90
14053;DHT22;7101;51.600;7.310;2023-05-07T02:45:01;13.50;99.90
14053;DHT22;7101;51.600;7.310;2023-05-07T02:47:28;13.50;99.90
14053;DHT22;7101;51.600;7.310;2023-05-07T02:49:57;13.50;99.90
14053;DHT22;7101;51.600;7.310;2023-05-07T02:52:24;13.50;99.90
14053;DHT22;7101;51.600;7.310;2023-05-07T02:54:52;13.50;99.90
14053;DHT22;7101;51.600;7.310;2023-05-07T02:57:18;13.50;99.90
14053;DHT22;7101;51.600;7.310;2023-05-07T02:59:45;13.50;99.90
14053;DHT22;7101;51.600;7.310;2023-05-07T03:02:12;13.50;99.90
14053;DHT22;7101;51.600;7.310;2023-05-07T03:04:39;13.50;99.90
14053;DHT22;7101;51.600;7.310;2023-05-07T03:07:08;13.60;99.90
14053;DHT22;7101;51.600;7.310;2023-05-07T03:09:35;13.60;99.90
14053;DHT22;7101;51.600;7.310;2023-05-07T03:12:03;13.60;99.90
14053;DHT22;7101;51.600;7.310;2023-05-07T03:14:29;13.60;99.90
14053;DHT22;7101;51.600;7.310;2023-05-07T03:16:56;13.60;99.90
14053;DHT22;7101;51.600;7.310;2023-05-07T03:19:23;13.60;99.90
14053;DHT22;7101;51.600;7.310;2023-05-07T03:21:51;13.60;99.90
14053;DHT22;7101;51.600;7.310;2023-05-07T03:24:19;13.60;99.90
14053;DHT22;7101;51.600;7.310;2023-05-07T03:26:46;13.50;99.90
14053;DHT22;7101;51.600;7.310;2023-05-07T03:29:13;13.50;99.90
14053;DHT22;7101;51.600;7.310;2023-05-07T03:31:40;13.50;99.90
14053;DHT22;7101;51.600;7.310;2023-05-07T03:34:07;13.50;99.90
14053;DHT22;7101;51.600;7.310;2023-05-07T03:36:34;13.50;99.90
14053;DHT22;7101;51.600;7.310;2023-05-07T03:39:00;13.50;99.90
14053;DHT22;7101;51.600;7.310;2023-05-07T03:41:29;13.50;99.90
14053;DHT22;7101;51.600;7.310;2023-05-07T03:43:56;13.50;99.90
14053;DHT22;7101;51.600;7.310;2023-05-07T03:46:22;13.60;99.90
14053;DHT22;7101;51.600;7.310;2023-05-07T03:48:51;13.50;99.90
14053;DHT22;7101;51.600;7.310;2023-05-07T03:51:18;13.60;99.90
14053;DHT22;7101;51.600;7.310;2023-05-07T03:53:45;13.50;99.90
14053;DHT22;7101;51.600;7.310;2023-05-07T03:56:12;13.50;99.90
14053;DHT22;7101;51.600;7.310;2023-05-07T03:58:40;13.50;99.90
14053;DHT22;7101;51.600;7.310;2023-05-07T04:01:07;13.40;99.90
14053;DHT22;7101;51.600;7.310;2023-05-07T04:03:34;13.50;99.90
14053;DHT22;7101;51.600;7.310;2023-05-07T04:06:01;13.50;99.90
14053;DHT22;7101;51.600;7.310;2023-05-07T04:08:28;13.50;99.90
14053;DHT22;7101;51.600;7.310;2023-05-07T04:10:56;13.70;99.90
14053;DHT22;7101;51.600;7.310;2023-05-07T04:13:24;13.70;99.90
14053;DHT22;7101;51.600;7.310;2023-05-07T04:15:52;13.70;99.90
14053;DHT22;7101;51.600;7.310;2023-05-07T04:18:19;13.60;99.90
14053;DHT22;7101;51.600;7.310;2023-05-07T04:20:47;13.60;99.90
14053;DHT22;7101;51.600;7.310;2023-05-07T04:23:14;13.50;99.90
14053;DHT22;7101;51.600;7.310;2023-05-07T04:25:41;13.50;99.90
14053;DHT22;7101;51.600;7.310;2023-05-07T04:28:08;13.40;99.90
14053;DHT22;7101;51.600;7.310;2023-05-07T04:30:36;13.50;99.90
14053;DHT22;7101;51.600;7.310;2023-05-07T04:33:04;13.60;99.90
14053;DHT22;7101;51.600;7.310;2023-05-07T04:35:33;13.60;99.90
14053;DHT22;7101;51.600;7.310;2023-05-07T04:38:00;13.60;99.90
14053;DHT22;7101;51.600;7.310;2023-05-07T04:40:28;13.70;99.90
14053;DHT22;7101;51.600;7.310;2023-05-07T04:42:55;13.70;99.90
14053;DHT22;7101;51.600;7.310;2023-05-07T04:45:22;13.70;99.90
14053;DHT22;7101;51.600;7.310;2023-05-07T04:47:49;13.80;99.90
14053;DHT22;7101;51.600;7.310;2023-05-07T04:50:17;14.00;99.90
14053;DHT22;7101;51.600;7.310;2023-05-07T04:52:47;14.10;99.90
14053;DHT22;7101;51.600;7.310;2023-05-07T04:55:14;14.20;99.90
14053;DHT22;7101;51.600;7.310;2023-05-07T04:57:41;14.60;99.90
14053;DHT22;7101;51.600;7.310;2023-05-07T05:00:08;15.20;99.90
14053;DHT22;7101;51.600;7.310;2023-05-07T05:02:35;15.90;99.90
14053;DHT22;7101;51.600;7.310;2023-05-07T05:05:03;16.00;99.90
14053;DHT22;7101;51.600;7.310;2023-05-07T05:07:31;16.00;99.90
14053;DHT22;7101;51.600;7.310;2023-05-07T05:09:58;16.00;99.90
14053;DHT22;7101;51.600;7.310;2023-05-07T05:12:26;16.20;99.90
14053;DHT22;7101;51.600;7.310;2023-05-07T05:14:52;16.10;99.90
14053;DHT22;7101;51.600;7.310;2023-05-07T05:17:19;16.00;99.90
14053;DHT22;7101;51.600;7.310;2023-05-07T05:19:46;15.80;99.90
14053;DHT22;7101;51.600;7.310;2023-05-07T05:22:13;15.60;99.90
14053;DHT22;7101;51.600;7.310;2023-05-07T05:24:43;15.70;99.90
14053;DHT22;7101;51.600;7.310;2023-05-07T05:27:09;15.50;99.90
14053;DHT22;7101;51.600;7.310;2023-05-07T05:29:36;15.30;99.90
14053;DHT22;7101;51.600;7.310;2023-05-07T05:32:03;15.50;99.90
14053;DHT22;7101;51.600;7.310;2023-05-07T05:34:30;15.70;99.90
14053;DHT22;7101;51.600;7.310;2023-05-07T05:36:59;15.90;99.90
14053;DHT22;7101;51.600;7.310;2023-05-07T05:39:26;15.90;99.90
14053;DHT22;7101;51.600;7.310;2023-05-07T05:41:55;15.80;99.90
14053;DHT22;7101;51.600;7.310;2023-05-07T05:44:22;15.70;99.90
14053;DHT22;7101;51.600;7.310;2023-05-07T05:46:49;16.40;99.90
14053;DHT22;7101;51.600;7.310;2023-05-07T05:49:17;16.90;99.90
14053;DHT22;7101;51.600;7.310;2023-05-07T05:51:44;17.70;99.90
14053;DHT22;7101;51.600;7.310;2023-05-07T05:54:11;18.30;99.90
14053;DHT22;7101;51.600;7.310;2023-05-07T05:56:38;18.80;99.90
14053;DHT22;7101;51.600;7.310;2023-05-07T05:59:06;19.20;99.90
14053;DHT22;7101;51.600;7.310;2023-05-07T06:01:33;19.50;99.90
14053;DHT22;7101;51.600;7.310;2023-05-07T06:04:00;19.50;99.90
14053;DHT22;7101;51.600;7.310;2023-05-07T06:06:27;19.00;99.90
14053;DHT22;7101;51.600;7.310;2023-05-07T06:08:54;19.10;99.90
14053;DHT22;7101;51.600;7.310;2023-05-07T06:11:21;18.90;99.90
14053;DHT22;7101;51.600;7.310;2023-05-07T06:13:47;19.30;99.90
14053;DHT22;7101;51.600;7.310;2023-05-07T06:16:16;19.60;99.90
14053;DHT22;7101;51.600;7.310;2023-05-07T06:18:44;19.70;99.90
14053;DHT22;7101;51.600;7.310;2023-05-07T06:21:13;19.90;99.90
14053;DHT22;7101;51.600;7.310;2023-05-07T06:23:40;20.20;99.90
14053;DHT22;7101;51.600;7.310;2023-05-07T06:26:07;20.00;99.90
14053;DHT22;7101;51.600;7.310;2023-05-07T06:28:34;19.70;99.90
14053;DHT22;7101;51.600;7.310;2023-05-07T06:31:12;20.00;99.90
14053;DHT22;7101;51.600;7.310;2023-05-07T06:33:42;19.90;99.90
14053;DHT22;7101;51.600;7.310;2023-05-07T06:36:09;19.30;99.90
14053;DHT22;7101;51.600;7.310;2023-05-07T06:38:36;18.60;99.90
14053;DHT22;7101;51.600;7.310;2023-05-07T06:41:02;18.80;99.90
14053;DHT22;7101;51.600;7.310;2023-05-07T06:43:32;18.90;99.90
14053;DHT22;7101;51.600;7.310;2023-05-07T06:45:59;18.60;99.90
14053;DHT22;7101;51.600;7.310;2023-05-07T06:48:26;18.40;99.90
14053;DHT22;7101;51.600;7.310;2023-05-07T06:50:55;18.20;99.90
14053;DHT22;7101;51.600;7.310;2023-05-07T06:53:23;18.00;99.90
14053;DHT22;7101;51.600;7.310;2023-05-07T06:55:50;17.60;99.90
14053;DHT22;7101;51.600;7.310;2023-05-07T06:58:17;17.70;99.90
14053;DHT22;7101;51.600;7.310;2023-05-07T07:00:44;17.50;99.90
14053;DHT22;7101;51.600;7.310;2023-05-07T07:03:11;17.40;99.90
14053;DHT22;7101;51.600;7.310;2023-05-07T07:05:38;17.50;99.90
14053;DHT22;7101;51.600;7.310;2023-05-07T07:08:06;17.60;99.90
14053;DHT22;7101;51.600;7.310;2023-05-07T07:10:33;17.70;99.90
14053;DHT22;7101;51.600;7.310;2023-05-07T07:13:00;17.80;99.90
14053;DHT22;7101;51.600;7.310;2023-05-07T07:15:27;18.10;99.90
14053;DHT22;7101;51.600;7.310;2023-05-07T07:17:53;18.50;99.90
14053;DHT22;7101;51.600;7.310;2023-05-07T07:20:22;18.50;99.90
14053;DHT22;7101;51.600;7.310;2023-05-07T07:22:48;18.40;99.90
14053;DHT22;7101;51.600;7.310;2023-05-07T07:25:17;18.30;99.90
14053;DHT22;7101;51.600;7.310;2023-05-07T07:27:44;18.40;99.90
14053;DHT22;7101;51.600;7.310;2023-05-07T07:30:11;18.60;99.90
14053;DHT22;7101;51.600;7.310;2023-05-07T07:32:38;19.30;99.90
14053;DHT22;7101;51.600;7.310;2023-05-07T07:35:06;19.30;99.90
14053;DHT22;7101;51.600;7.310;2023-05-07T07:37:33;19.40;99.90
14053;DHT22;7101;51.600;7.310;2023-05-07T07:40:00;18.90;99.90
14053;DHT22;7101;51.600;7.310;2023-05-07T07:42:28;18.90;99.90
14053;DHT22;7101;51.600;7.310;2023-05-07T07:44:55;18.90;99.90
14053;DHT22;7101;51.600;7.310;2023-05-07T07:47:23;18.60;99.90
14053;DHT22;7101;51.600;7.310;2023-05-07T07:49:50;18.70;99.90
14053;DHT22;7101;51.600;7.310;2023-05-07T07:52:16;18.80;99.90
14053;DHT22;7101;51.600;7.310;2023-05-07T07:54:44;18.90;99.90
14053;DHT22;7101;51.600;7.310;2023-05-07T07:57:11;19.20;99.90
14053;DHT22;7101;51.600;7.310;2023-05-07T07:59:39;19.80;99.90
14053;DHT22;7101;51.600;7.310;2023-05-07T08:02:08;20.10;99.90
14053;DHT22;7101;51.600;7.310;2023-05-07T08:04:36;20.50;99.90
14053;DHT22;7101;51.600;7.310;2023-05-07T08:07:03;21.00;99.90
14053;DHT22;7101;51.600;7.310;2023-05-07T08:09:31;20.90;99.90
14053;DHT22;7101;51.600;7.310;2023-05-07T08:11:57;21.10;99.90
14053;DHT22;7101;51.600;7.310;2023-05-07T08:14:24;21.40;99.90
14053;DHT22;7101;51.600;7.310;2023-05-07T08:16:53;20.70;99.90
14053;DHT22;7101;51.600;7.310;2023-05-07T08:19:19;19.80;99.90
14053;DHT22;7101;51.600;7.310;2023-05-07T08:21:48;19.30;99.90
14053;DHT22;7101;51.600;7.310;2023-05-07T08:24:15;19.10;99.90
14053;DHT22;7101;51.600;7.310;2023-05-07T08:26:42;19.00;99.90
14053;DHT22;7101;51.600;7.310;2023-05-07T08:29:09;19.00;99.90
14053;DHT22;7101;51.600;7.310;2023-05-07T08:31:36;18.80;99.90
14053;DHT22;7101;51.600;7.310;2023-05-07T08:34:05;18.90;99.90
14053;DHT22;7101;51.600;7.310;2023-05-07T08:36:33;19.00;99.90
14053;DHT22;7101;51.600;7.310;2023-05-07T08:38:59;19.00;99.90
14053;DHT22;7101;51.600;7.310;2023-05-07T08:41:27;18.80;99.90
14053;DHT22;7101;51.600;7.310;2023-05-07T08:43:57;18.90;99.90
14053;DHT22;7101;51.600;7.310;2023-05-07T08:46:25;19.00;99.90
14053;DHT22;7101;51.600;7.310;2023-05-07T08:48:52;19.00;99.90
14053;DHT22;7101;51.600;7.310;2023-05-07T08:51:21;19.30;99.90
14053;DHT22;7101;51.600;7.310;2023-05-07T08:53:49;19.20;99.90
14053;DHT22;7101;51.600;7.310;2023-05-07T08:56:16;19.40;99.90
14053;DHT22;7101;51.600;7.310;2023-05-07T08:58:44;19.40;99.90
14053;DHT22;7101;51.600;7.310;2023-05-07T09:01:14;19.40;99.90
14053;DHT22;7101;51.600;7.310;2023-05-07T09:03:42;19.20;99.90
14053;DHT22;7101;51.600;7.310;2023-05-07T09:06:10;19.20;99.90
14053;DHT22;7101;51.600;7.310;2023-05-07T09:08:38;18.80;99.90
14053;DHT22;7101;51.600;7.310;2023-05-07T09:11:05;19.10;99.90
14053;DHT22;7101;51.600;7.310;2023-05-07T09:13:32;19.30;99.90
14053;DHT22;7101;51.600;7.310;2023-05-07T09:16:09;19.30;99.90
14053;DHT22;7101;51.600;7.310;2023-05-07T09:18:40;19.40;99.90
14053;DHT22;7101;51.600;7.310;2023-05-07T09:21:09;19.40;99.90
14053;DHT22;7101;51.600;7.310;2023-05-07T09:23:41;19.50;99.90
14053;DHT22;7101;51.600;7.310;2023-05-07T09:26:08;19.40;99.90
14053;DHT22;7101;51.600;7.310;2023-05-07T09:28:39;19.40;99.90
14053;DHT22;7101;51.600;7.310;2023-05-07T09:31:06;19.80;99.90
14053;DHT22;7101;51.600;7.310;2023-05-07T09:33:33;20.10;99.90
14053;DHT22;7101;51.600;7.310;2023-05-07T09:36:02;19.90;99.90
14053;DHT22;7101;51.600;7.310;2023-05-07T09:38:31;19.80;99.90
14053;DHT22;7101;51.600;7.310;2023-05-07T09:41:03;20.20;99.90
14053;DHT22;7101;51.600;7.310;2023-05-07T09:43:32;20.40;99.90
14053;DHT22;7101;51.600;7.310;2023-05-07T09:46:02;20.90;99.90
14053;DHT22;7101;51.600;7.310;2023-05-07T09:48:30;21.30;99.90
14053;DHT22;7101;51.600;7.310;2023-05-07T09:51:02;21.50;99.90
14053;DHT22;7101;51.600;7.310;2023-05-07T09:53:30;21.60;99.90
14053;DHT22;7101;51.600;7.310;2023-05-07T09:55:57;21.60;99.90
14053;DHT22;7101;51.600;7.310;2023-05-07T09:58:27;21.50;99.90
14053;DHT22;7101;51.600;7.310;2023-05-07T10:00:55;21.50;99.90
14053;DHT22;7101;51.600;7.310;2023-05-07T10:03:24;21.80;99.90
14053;DHT22;7101;51.600;7.310;2023-05-07T10:05:53;21.80;99.90
14053;DHT22;7101;51.600;7.310;2023-05-07T10:08:21;21.50;99.90
14053;DHT22;7101;51.600;7.310;2023-05-07T10:10:49;21.60;99.90
14053;DHT22;7101;51.600;7.310;2023-05-07T10:13:17;21.60;99.90
14053;DHT22;7101;51.600;7.310;2023-05-07T10:15:47;21.60;99.90
14053;DHT22;7101;51.600;7.310;2023-05-07T10:18:15;21.70;99.90
14053;DHT22;7101;51.600;7.310;2023-05-07T10:20:43;21.90;99.90
14053;DHT22;7101;51.600;7.310;2023-05-07T10:23:14;22.10;99.90
14053;DHT22;7101;51.600;7.310;2023-05-07T10:25:45;22.20;99.90
14053;DHT22;7101;51.600;7.310;2023-05-07T10:28:12;22.20;99.90
14053;DHT22;7101;51.600;7.310;2023-05-07T10:30:51;22.30;99.90
14053;DHT22;7101;51.600;7.310;2023-05-07T10:33:24;22.50;99.90
14053;DHT22;7101;51.600;7.310;2023-05-07T10:35:55;22.80;99.90
14053;DHT22;7101;51.600;7.310;2023-05-07T10:38:24;22.80;99.90
14053;DHT22;7101;51.600;7.310;2023-05-07T10:40:51;22.80;99.90
14053;DHT22;7101;51.600;7.310;2023-05-07T10:43:18;22.50;99.90
14053;DHT22;7101;51.600;7.310;2023-05-07T10:46:09;22.20;99.90
14053;DHT22;7101;51.600;7.310;2023-05-07T10:49:10;22.40;99.90
14053;DHT22;7101;51.600;7.310;2023-05-07T10:51:41;22.40;99.90
14053;DHT22;7101;51.600;7.310;2023-05-07T10:54:23;22.50;99.90
14053;DHT22;7101;51.600;7.310;2023-05-07T10:56:53;22.30;99.90
14053;DHT22;7101;51.600;7.310;2023-05-07T10:59:34;22.30;99.90
14053;DHT22;7101;51.600;7.310;2023-05-07T11:02:09;21.90;99.90
14053;DHT22;7101;51.600;7.310;2023-05-07T11:04:37;21.90;99.90
14053;DHT22;7101;51.600;7.310;2023-05-07T11:07:29;22.20;99.90
14053;DHT22;7101;51.600;7.310;2023-05-07T11:10:00;22.60;99.90
14053;DHT22;7101;51.600;7.310;2023-05-07T11:12:54;22.90;99.90
14053;DHT22;7101;51.600;7.310;2023-05-07T11:15:49;22.70;99.90
14053;DHT22;7101;51.600;7.310;2023-05-07T11:18:18;22.60;99.90
14053;DHT22;7101;51.600;7.310;2023-05-07T11:20:56;22.50;99.90
14053;DHT22;7101;51.600;7.310;2023-05-07T11:26:41;22.30;99.90
14053;DHT22;7101;51.600;7.310;2023-05-07T11:29:13;22.20;99.90
14053;DHT22;7101;51.600;7.310;2023-05-07T11:31:41;22.30;99.90
14053;DHT22;7101;51.600;7.310;2023-05-07T11:34:09;22.20;99.90
14053;DHT22;7101;51.600;7.310;2023-05-07T11:36:42;22.10;99.90
14053;DHT22;7101;51.600;7.310;2023-05-07T11:39:26;22.20;99.90
14053;DHT22;7101;51.600;7.310;2023-05-07T11:41:54;22.20;99.90
14053;DHT22;7101;51.600;7.310;2023-05-07T11:44:21;22.20;99.90
14053;DHT22;7101;51.600;7.310;2023-05-07T11:46:48;22.10;99.90
14053;DHT22;7101;51.600;7.310;2023-05-07T11:49:17;22.00;99.90
14053;DHT22;7101;51.600;7.310;2023-05-07T11:51:44;21.90;99.90
14053;DHT22;7101;51.600;7.310;2023-05-07T11:54:15;21.80;99.90
14053;DHT22;7101;51.600;7.310;2023-05-07T11:56:43;21.70;99.90
14053;DHT22;7101;51.600;7.310;2023-05-07T11:59:10;21.70;99.90
14053;DHT22;7101;51.600;7.310;2023-05-07T12:01:37;21.60;99.90
14053;DHT22;7101;51.600;7.310;2023-05-07T12:04:04;21.60;99.90
14053;DHT22;7101;51.600;7.310;2023-05-07T12:06:36;21.80;99.90
14053;DHT22;7101;51.600;7.310;2023-05-07T12:09:03;22.30;99.90
14053;DHT22;7101;51.600;7.310;2023-05-07T12:11:32;22.60;99.90
14053;DHT22;7101;51.600;7.310;2023-05-07T12:14:00;22.70;99.90
14053;DHT22;7101;51.600;7.310;2023-05-07T12:16:27;23.10;99.90
14053;DHT22;7101;51.600;7.310;2023-05-07T12:18:54;23.10;99.90
14053;DHT22;7101;51.600;7.310;2023-05-07T12:21:21;23.10;99.90
14053;DHT22;7101;51.600;7.310;2023-05-07T12:23:52;23.00;99.90
14053;DHT22;7101;51.600;7.310;2023-05-07T12:26:19;22.90;99.90
14053;DHT22;7101;51.600;7.310;2023-05-07T12:28:47;22.90;99.90
14053;DHT22;7101;51.600;7.310;2023-05-07T12:31:14;22.70;99.90
14053;DHT22;7101;51.600;7.310;2023-05-07T12:33:42;22.70;99.90
14053;DHT22;7101;51.600;7.310;2023-05-07T12:36:11;22.80;99.90
14053;DHT22;7101;51.600;7.310;2023-05-07T12:38:39;23.20;99.90
14053;DHT22;7101;51.600;7.310;2023-05-07T12:41:09;23.00;99.90
14053;DHT22;7101;51.600;7.310;2023-05-07T12:43:37;22.90;99.90
14053;DHT22;7101;51.600;7.310;2023-05-07T12:46:06;23.20;99.90
14053;DHT22;7101;51.600;7.310;2023-05-07T12:48:33;23.30;99.90
14053;DHT22;7101;51.600;7.310;2023-05-07T12:51:00;22.90;99.90
14053;DHT22;7101;51.600;7.310;2023-05-07T12:53:28;22.90;99.90
14053;DHT22;7101;51.600;7.310;2023-05-07T12:55:56;22.70;99.90
14053;DHT22;7101;51.600;7.310;2023-05-07T12:58:27;22.70;99.90
14053;DHT22;7101;51.600;7.310;2023-05-07T13:00:54;22.60;99.90
14053;DHT22;7101;51.600;7.310;2023-05-07T13:03:26;22.50;99.90
14053;DHT22;7101;51.600;7.310;2023-05-07T13:05:56;22.50;99.90
14053;DHT22;7101;51.600;7.310;2023-05-07T13:08:25;22.50;99.90
14053;DHT22;7101;51.600;7.310;2023-05-07T13:10:52;22.50;99.90
14053;DHT22;7101;51.600;7.310;2023-05-07T13:13:19;22.70;99.90
14053;DHT22;7101;51.600;7.310;2023-05-07T13:15:48;22.50;99.90
14053;DHT22;7101;51.600;7.310;2023-05-07T13:18:17;22.50;99.90
14053;DHT22;7101;51.600;7.310;2023-05-07T13:20:45;22.40;99.90
14053;DHT22;7101;51.600;7.310;2023-05-07T13:23:12;22.50;99.90
14053;DHT22;7101;51.600;7.310;2023-05-07T13:25:39;22.50;99.90
14053;DHT22;7101;51.600;7.310;2023-05-07T13:28:06;22.30;99.90
14053;DHT22;7101;51.600;7.310;2023-05-07T13:30:35;21.80;99.90
14053;DHT22;7101;51.600;7.310;2023-05-07T13:33:04;21.70;99.90
14053;DHT22;7101;51.600;7.310;2023-05-07T13:35:31;21.90;99.90
14053;DHT22;7101;51.600;7.310;2023-05-07T13:37:58;21.80;99.90
14053;DHT22;7101;51.600;7.310;2023-05-07T13:40:25;21.70;99.90
14053;DHT22;7101;51.600;7.310;2023-05-07T13:42:53;21.60;99.90
14053;DHT22;7101;51.600;7.310;2023-05-07T13:45:20;21.40;99.90
14053;DHT22;7101;51.600;7.310;2023-05-07T13:47:47;21.60;99.90
14053;DHT22;7101;51.600;7.310;2023-05-07T13:50:19;21.60;99.90
14053;DHT22;7101;51.600;7.310;2023-05-07T13:52:46;21.50;99.90
14053;DHT22;7101;51.600;7.310;2023-05-07T13:55:16;21.40;99.90
14053;DHT22;7101;51.600;7.310;2023-05-07T13:57:43;21.50;99.90
14053;DHT22;7101;51.600;7.310;2023-05-07T14:00:11;21.50;99.90
14053;DHT22;7101;51.600;7.310;2023-05-07T14:02:38;21.60;99.90
14053;DHT22;7101;51.600;7.310;2023-05-07T14:05:06;21.70;99.90
14053;DHT22;7101;51.600;7.310;2023-05-07T14:07:36;21.60;99.90
14053;DHT22;7101;51.600;7.310;2023-05-07T14:10:03;21.50;99.90
14053;DHT22;7101;51.600;7.310;2023-05-07T14:12:32;21.50;99.90
14053;DHT22;7101;51.600;7.310;2023-05-07T14:15:01;21.60;99.90
14053;DHT22;7101;51.600;7.310;2023-05-07T14:17:28;21.60;99.90
14053;DHT22;7101;51.600;7.310;2023-05-07T14:19:55;21.60;99.90
14053;DHT22;7101;51.600;7.310;2023-05-07T14:22:23;21.60;99.90
14053;DHT22;7101;51.600;7.310;2023-05-07T14:24:51;21.70;99.90
14053;DHT22;7101;51.600;7.310;2023-05-07T14:27:18;21.70;99.90
14053;DHT22;7101;51.600;7.310;2023-05-07T14:29:44;21.40;99.90
14053;DHT22;7101;51.600;7.310;2023-05-07T14:32:16;21.30;99.90
14053;DHT22;7101;51.600;7.310;2023-05-07T14:34:44;21.20;99.90
14053;DHT22;7101;51.600;7.310;2023-05-07T14:37:12;21.20;99.90
14053;DHT22;7101;51.600;7.310;2023-05-07T14:39:39;21.20;99.90
14053;DHT22;7101;51.600;7.310;2023-05-07T14:42:07;21.10;99.90
14053;DHT22;7101;51.600;7.310;2023-05-07T14:44:34;21.20;99.90
14053;DHT22;7101;51.600;7.310;2023-05-07T14:47:01;21.20;99.90
14053;DHT22;7101;51.600;7.310;2023-05-07T14:49:28;21.30;99.90
14053;DHT22;7101;51.600;7.310;2023-05-07T14:51:57;21.40;99.90
14053;DHT22;7101;51.600;7.310;2023-05-07T14:54:25;21.40;99.90
14053;DHT22;7101;51.600;7.310;2023-05-07T14:56:51;21.50;99.90
14053;DHT22;7101;51.600;7.310;2023-05-07T14:59:20;21.40;99.90
14053;DHT22;7101;51.600;7.310;2023-05-07T15:01:47;21.40;99.90
14053;DHT22;7101;51.600;7.310;2023-05-07T15:04:15;21.30;99.90
14053;DHT22;7101;51.600;7.310;2023-05-07T15:06:42;21.30;99.90
14053;DHT22;7101;51.600;7.310;2023-05-07T15:09:09;21.30;99.90
14053;DHT22;7101;51.600;7.310;2023-05-07T15:11:35;21.20;99.90
14053;DHT22;7101;51.600;7.310;2023-05-07T15:14:02;21.10;99.90
14053;DHT22;7101;51.600;7.310;2023-05-07T15:16:30;21.10;99.90
14053;DHT22;7101;51.600;7.310;2023-05-07T15:18:58;21.10;99.90
14053;DHT22;7101;51.600;7.310;2023-05-07T15:21:25;21.10;99.90
14053;DHT22;7101;51.600;7.310;2023-05-07T15:23:52;21.10;99.90
14053;DHT22;7101;51.600;7.310;2023-05-07T15:26:19;21.00;99.90
14053;DHT22;7101;51.600;7.310;2023-05-07T15:28:46;21.00;99.90
14053;DHT22;7101;51.600;7.310;2023-05-07T15:31:12;21.20;99.90
14053;DHT22;7101;51.600;7.310;2023-05-07T15:33:41;21.30;99.90
14053;DHT22;7101;51.600;7.310;2023-05-07T15:36:08;21.20;99.90
14053;DHT22;7101;51.600;7.310;2023-05-07T15:38:34;21.10;99.90
14053;DHT22;7101;51.600;7.310;2023-05-07T15:41:01;21.10;99.90
14053;DHT22;7101;51.600;7.310;2023-05-07T15:43:29;21.20;99.90
14053;DHT22;7101;51.600;7.310;2023-05-07T15:45:55;21.20;99.90
14053;DHT22;7101;51.600;7.310;2023-05-07T15:48:22;21.30;99.90
14053;DHT22;7101;51.600;7.310;2023-05-07T15:50:51;21.00;99.90
14053;DHT22;7101;51.600;7.310;2023-05-07T15:53:17;21.10;99.90